Time;durP1;ratioP1;P1;durP2;ratioP2;P2;SDS_P1;SDS_P2;PMS_P1;PMS_P2;Temp;Humidity;BMP_temperature;BMP_pressure;BME280_temperature;BME280_humidity;BME280_pressure;Samples;Min_cycle;Max_cycle;Signal;HPM_P1;HPM_P2
2022/01/22 00:01:49;;;;;;;14.63;6.72;;;;;;;;;;7327115;19;20166;-40
2022/01/22 00:04:19;;;;;;;8.18;5.75;;;;;;;;;;7375453;19;20718;-40
2022/01/22 00:06:52;;;;;;;9.90;5.97;;;;;;;;;;7374551;19;20128;-40
2022/01/22 00:09:25;;;;;;;8.45;5.70;;;;;;;;;;7359889;19;20614;-39
2022/01/22 00:11:55;;;;;;;11.70;5.68;;;;;;;;;;7372055;19;20730;-39
2022/01/22 00:14:25;;;;;;;8.85;5.05;;;;;;;;;;7373779;19;20131;-40
2022/01/22 00:17:01;;;;;;;9.27;6.00;;;;;;;;;;7373377;19;20139;-40
2022/01/22 00:19:34;;;;;;;7.43;5.10;;;;;;;;;;7373734;19;21130;-40
2022/01/22 00:22:04;;;;;;;9.02;5.90;;;;;;;;;;7373527;19;20844;-40
2022/01/22 00:24:38;;;;;;;11.35;5.65;;;;;;;;;;7370223;19;20140;-40
2022/01/22 00:27:10;;;;;;;11.38;5.75;;;;;;;;;;7366915;19;20456;-39
2022/01/22 00:29:42;;;;;;;8.32;6.25;;;;;;;;;;7371310;19;20221;-40
2022/01/22 00:32:14;;;;;;;8.23;5.22;;;;;;;;;;7365680;19;20195;-39
2022/01/22 00:34:43;;;;;;;11.25;5.47;;;;;;;;;;7372391;19;20147;-40
2022/01/22 00:37:13;;;;;;;10.18;5.38;;;;;;;;;;7370652;19;20134;-40
2022/01/22 00:39:46;;;;;;;10.23;5.75;;;;;;;;;;7372398;19;20135;-40
2022/01/22 00:42:18;;;;;;;9.88;5.38;;;;;;;;;;7374711;19;20131;-40
2022/01/22 00:44:49;;;;;;;9.35;5.75;;;;;;;;;;7372933;19;20127;-39
2022/01/22 00:47:21;;;;;;;12.07;6.38;;;;;;;;;;7372633;19;20132;-40
2022/01/22 00:49:53;;;;;;;7.80;5.28;;;;;;;;;;7371019;19;20151;-40
2022/01/22 00:52:22;;;;;;;8.38;5.28;;;;;;;;;;7360894;19;20484;-40
2022/01/22 00:54:57;;;;;;;8.27;5.43;;;;;;;;;;7362267;19;20471;-40
2022/01/22 00:57:26;;;;;;;9.52;5.40;;;;;;;;;;7363340;19;20130;-40
2022/01/22 00:59:59;;;;;;;9.88;5.53;;;;;;;;;;7357705;19;20471;-40
2022/01/22 01:02:29;;;;;;;9.68;5.80;;;;;;;;;;7334322;19;20171;-40
2022/01/22 01:05:01;;;;;;;6.82;5.10;;;;;;;;;;7372871;19;20136;-39
2022/01/22 01:07:31;;;;;;;8.80;5.00;;;;;;;;;;7373657;19;20132;-40
2022/01/22 01:10:06;;;;;;;10.18;5.63;;;;;;;;;;7358703;19;20772;-39
2022/01/22 01:12:37;;;;;;;8.45;4.90;;;;;;;;;;7367318;19;20120;-39
2022/01/22 01:15:19;;;;;;;6.25;4.40;;;;;;;;;;7367882;19;20522;-39
2022/01/22 01:34:14;;;;;;;9.80;5.38;;;;;;;;;;7370354;19;20143;-40
2022/01/22 01:36:45;;;;;;;8.70;5.28;;;;;;;;;;7374314;19;20636;-40
2022/01/22 01:39:21;;;;;;;7.75;5.65;;;;;;;;;;7363711;19;20144;-40
2022/01/22 01:42:00;;;;;;;10.23;5.47;;;;;;;;;;7370476;19;20206;-40
2022/01/22 01:44:32;;;;;;;9.45;5.25;;;;;;;;;;7362337;19;20606;-40
2022/01/22 01:47:15;;;;;;;9.52;5.45;;;;;;;;;;7363362;19;20128;-40
2022/01/22 01:49:45;;;;;;;6.78;4.55;;;;;;;;;;7366869;19;20709;-40
2022/01/22 01:52:46;;;;;;;6.40;4.72;;;;;;;;;;7361646;19;20647;-40
2022/01/22 01:55:22;;;;;;;6.50;5.43;;;;;;;;;;7369661;19;20127;-40
2022/01/22 01:57:53;;;;;;;5.13;4.43;;;;;;;;;;7369255;19;20150;-40
2022/01/22 02:00:26;;;;;;;8.98;5.15;;;;;;;;;;7352129;19;20131;-40
2022/01/22 02:03:00;;;;;;;7.95;4.57;;;;;;;;;;7364025;19;20135;-39
2022/01/22 02:05:35;;;;;;;10.80;5.25;;;;;;;;;;7363107;19;20431;-39
2022/01/22 02:08:04;;;;;;;6.97;5.35;;;;;;;;;;7374087;19;20349;-39
2022/01/22 02:10:54;;;;;;;7.45;5.05;;;;;;;;;;7364782;19;20135;-39
2022/01/22 02:14:03;;;;;;;8.07;5.43;;;;;;;;;;7371896;19;20159;-39
2022/01/22 02:25:14;;;;;;;6.32;5.00;;;;;;;;;;7359257;19;20128;-40
2022/01/22 02:27:44;;;;;;;8.18;5.82;;;;;;;;;;7370321;19;20144;-40
2022/01/22 02:30:23;;;;;;;10.73;6.43;;;;;;;;;;7361337;19;20144;-39
2022/01/22 02:33:23;;;;;;;6.38;5.00;;;;;;;;;;7361743;19;20135;-39
2022/01/22 02:35:58;;;;;;;6.78;4.22;;;;;;;;;;7358669;19;20146;-40
2022/01/22 02:38:36;;;;;;;8.73;5.60;;;;;;;;;;7369274;19;20664;-40
2022/01/22 02:41:13;;;;;;;9.00;5.90;;;;;;;;;;7363378;19;20673;-39
2022/01/22 02:43:43;;;;;;;7.00;5.28;;;;;;;;;;7365297;19;20123;-40
2022/01/22 02:46:19;;;;;;;9.23;4.95;;;;;;;;;;7363138;19;20131;-40
2022/01/22 02:48:48;;;;;;;11.98;5.57;;;;;;;;;;7366386;19;20734;-39
2022/01/22 02:51:19;;;;;;;8.50;5.45;;;;;;;;;;7369044;19;20725;-39
2022/01/22 02:53:55;;;;;;;8.88;5.60;;;;;;;;;;7348438;19;20135;-40
2022/01/22 02:56:25;;;;;;;6.15;5.15;;;;;;;;;;7367112;19;20150;-40
2022/01/22 02:58:56;;;;;;;9.35;6.47;;;;;;;;;;7364868;19;20130;-40
2022/01/22 03:01:26;;;;;;;10.80;6.50;;;;;;;;;;7356659;19;20144;-40
2022/01/22 03:03:58;;;;;;;9.77;6.50;;;;;;;;;;7366278;19;20142;-40
2022/01/22 03:06:27;;;;;;;9.30;6.13;;;;;;;;;;7364794;19;20159;-40
2022/01/22 03:09:00;;;;;;;11.15;6.57;;;;;;;;;;7363752;19;20123;-39
2022/01/22 03:11:40;;;;;;;8.68;5.88;;;;;;;;;;7363063;19;20134;-39
2022/01/22 03:17:12;;;;;;;6.72;5.15;;;;;;;;;;7368053;19;20128;-40
2022/01/22 03:22:30;;;;;;;7.88;5.47;;;;;;;;;;7356744;19;20128;-39
2022/01/22 03:27:48;;;;;;;8.00;5.22;;;;;;;;;;7373524;19;20146;-39
2022/01/22 03:30:20;;;;;;;9.65;6.72;;;;;;;;;;7367487;19;20242;-39
2022/01/22 03:32:53;;;;;;;8.38;6.10;;;;;;;;;;7371577;19;20136;-39
2022/01/22 03:35:27;;;;;;;10.57;5.65;;;;;;;;;;7370416;19;20211;-39
2022/01/22 03:37:59;;;;;;;9.43;6.07;;;;;;;;;;7373767;19;20168;-40
2022/01/22 03:40:35;;;;;;;9.95;5.70;;;;;;;;;;7367179;19;21164;-40
2022/01/22 03:43:07;;;;;;;11.15;6.13;;;;;;;;;;7373711;19;20127;-39
2022/01/22 03:45:42;;;;;;;10.25;6.55;;;;;;;;;;7364995;19;20142;-40
2022/01/22 03:48:11;;;;;;;11.10;6.85;;;;;;;;;;7377813;19;20251;-39
2022/01/22 03:50:43;;;;;;;8.38;5.15;;;;;;;;;;7365691;19;20147;-40
2022/01/22 03:53:15;;;;;;;10.63;6.63;;;;;;;;;;7375381;19;20132;-39
2022/01/22 03:55:57;;;;;;;6.97;5.85;;;;;;;;;;7367537;19;21168;-39
2022/01/22 03:58:35;;;;;;;8.68;5.90;;;;;;;;;;7373195;19;20131;-40
2022/01/22 04:04:16;;;;;;;7.80;6.10;;;;;;;;;;7371414;19;20137;-40
2022/01/22 04:09:38;;;;;;;9.68;5.78;;;;;;;;;;7372283;19;20179;-39
2022/01/22 04:12:13;;;;;;;8.60;6.15;;;;;;;;;;7373916;19;20126;-39
2022/01/22 04:14:49;;;;;;;10.02;5.68;;;;;;;;;;7371051;19;20575;-39
2022/01/22 04:24:47;;;;;;;10.07;6.35;;;;;;;;;;7375026;19;20154;-39
2022/01/22 04:25:50;;;;;;;9.15;6.38;;;;;;;;;;7364204;19;20614;-39
2022/01/22 04:28:22;;;;;;;11.15;6.03;;;;;;;;;;7375210;19;21213;-40
2022/01/22 04:30:57;;;;;;;8.25;5.85;;;;;;;;;;7363457;19;20127;-40
2022/01/22 04:33:26;;;;;;;9.43;5.90;;;;;;;;;;7370064;19;20128;-40
2022/01/22 04:35:59;;;;;;;9.35;6.25;;;;;;;;;;7370990;19;20140;-40
2022/01/22 04:38:29;;;;;;;10.70;6.88;;;;;;;;;;7360652;19;20144;-40
2022/01/22 04:40:59;;;;;;;11.75;6.90;;;;;;;;;;7378006;19;20151;-40
2022/01/22 04:43:33;;;;;;;8.77;6.10;;;;;;;;;;7370794;19;20833;-40
2022/01/22 04:46:15;;;;;;;10.00;6.35;;;;;;;;;;7370349;19;20123;-40
2022/01/22 04:49:07;;;;;;;11.18;5.70;;;;;;;;;;7371623;19;20131;-40
2022/01/22 04:57:08;;;;;;;8.73;6.15;;;;;;;;;;7370467;19;20151;-40
2022/01/22 04:59:41;;;;;;;8.98;6.00;;;;;;;;;;7371609;19;20132;-40
2022/01/22 05:02:13;;;;;;;11.70;6.32;;;;;;;;;;7365104;19;20155;-39
2022/01/22 05:04:50;;;;;;;10.45;6.70;;;;;;;;;;7367990;19;20131;-40
2022/01/22 05:07:28;;;;;;;9.85;6.72;;;;;;;;;;7368460;19;20150;-39
2022/01/22 05:10:08;;;;;;;11.82;7.15;;;;;;;;;;7370611;19;20743;-39
2022/01/22 05:12:40;;;;;;;12.75;6.47;;;;;;;;;;7368260;19;20656;-39
2022/01/22 05:15:16;;;;;;;7.53;5.93;;;;;;;;;;7364182;19;20132;-40
2022/01/22 05:17:47;;;;;;;8.98;6.40;;;;;;;;;;7371965;19;20144;-40
2022/01/22 05:20:25;;;;;;;12.10;6.85;;;;;;;;;;7366044;19;20608;-40
2022/01/22 05:23:01;;;;;;;8.70;6.20;;;;;;;;;;7365134;19;20139;-40
2022/01/22 05:25:38;;;;;;;9.60;7.00;;;;;;;;;;7345248;19;20131;-40
2022/01/22 05:28:49;;;;;;;9.10;5.30;;;;;;;;;;7371854;19;20151;-40
2022/01/22 05:31:41;;;;;;;12.52;7.15;;;;;;;;;;7374153;19;20132;-40
2022/01/22 05:37:19;;;;;;;14.25;7.28;;;;;;;;;;7372456;19;20161;-40
2022/01/22 05:39:49;;;;;;;13.82;6.97;;;;;;;;;;7371952;19;20195;-40
2022/01/22 05:42:19;;;;;;;9.30;6.93;;;;;;;;;;7370657;19;20131;-43
2022/01/22 05:44:48;;;;;;;10.70;6.82;;;;;;;;;;7369711;19;20124;-40
2022/01/22 05:47:27;;;;;;;11.57;6.57;;;;;;;;;;7373265;19;20127;-40
2022/01/22 05:50:00;;;;;;;12.52;8.48;;;;;;;;;;7365597;19;20169;-39
2022/01/22 05:52:36;;;;;;;9.43;6.65;;;;;;;;;;7373565;19;20123;-40
2022/01/22 05:55:37;;;;;;;10.93;6.90;;;;;;;;;;7371824;19;20128;-40
2022/01/22 06:00:57;;;;;;;12.05;7.13;;;;;;;;;;7362680;19;20176;-40
2022/01/22 06:03:48;;;;;;;8.32;6.50;;;;;;;;;;7372011;19;20687;-40
2022/01/22 06:06:20;;;;;;;10.70;7.05;;;;;;;;;;7370694;19;20580;-40
2022/01/22 06:08:53;;;;;;;10.88;6.82;;;;;;;;;;7368510;19;20135;-39
2022/01/22 06:11:28;;;;;;;8.95;7.57;;;;;;;;;;7364961;19;20131;-40
2022/01/22 06:13:57;;;;;;;8.50;6.68;;;;;;;;;;7368874;19;20140;-40
2022/01/22 06:16:41;;;;;;;11.57;7.22;;;;;;;;;;7365991;19;20744;-40
2022/01/22 06:19:36;;;;;;;10.90;6.20;;;;;;;;;;7366134;19;20144;-40
2022/01/22 06:22:08;;;;;;;15.38;6.90;;;;;;;;;;7374433;19;20135;-40
2022/01/22 06:24:40;;;;;;;9.82;6.80;;;;;;;;;;7364354;19;20131;-39
2022/01/22 06:27:13;;;;;;;9.70;6.47;;;;;;;;;;7370872;19;20145;-40
2022/01/22 06:29:43;;;;;;;15.52;6.95;;;;;;;;;;7368311;19;20191;-41
2022/01/22 06:32:15;;;;;;;10.65;8.15;;;;;;;;;;7356368;19;20203;-40
2022/01/22 06:34:49;;;;;;;9.23;6.45;;;;;;;;;;7371028;19;20190;-40
2022/01/22 06:37:19;;;;;;;8.68;6.70;;;;;;;;;;7369647;19;20130;-40
2022/01/22 06:43:15;;;;;;;9.63;5.70;;;;;;;;;;7360322;19;20612;-40
2022/01/22 06:46:09;;;;;;;10.88;7.15;;;;;;;;;;7365625;19;20135;-39
2022/01/22 06:48:51;;;;;;;9.68;6.45;;;;;;;;;;7357367;19;20713;-39
2022/01/22 06:51:34;;;;;;;7.50;6.78;;;;;;;;;;7369822;19;20135;-39
2022/01/22 06:54:07;;;;;;;8.85;6.53;;;;;;;;;;7368807;19;20131;-40
2022/01/22 06:56:39;;;;;;;11.45;6.05;;;;;;;;;;7364084;19;21146;-39
2022/01/22 06:59:13;;;;;;;10.90;6.90;;;;;;;;;;7349765;19;20135;-40
2022/01/22 07:01:53;;;;;;;8.00;6.10;;;;;;;;;;7334403;19;20154;-40
2022/01/22 07:04:26;;;;;;;10.80;5.65;;;;;;;;;;7370371;19;20124;-40
2022/01/22 07:07:05;;;;;;;10.20;6.53;;;;;;;;;;7364144;19;20127;-40
2022/01/22 07:09:38;;;;;;;8.05;5.65;;;;;;;;;;7362686;19;20127;-33
2022/01/22 07:12:08;;;;;;;14.50;6.57;;;;;;;;;;7369263;19;20139;-33
2022/01/22 07:14:39;;;;;;;8.88;5.93;;;;;;;;;;7367258;19;20565;-33
2022/01/22 07:17:12;;;;;;;11.82;6.43;;;;;;;;;;7361342;19;20146;-33
2022/01/22 07:19:46;;;;;;;12.10;7.45;;;;;;;;;;7346979;19;20159;-34
2022/01/22 07:22:46;;;;;;;9.80;6.43;;;;;;;;;;7354652;19;20123;-34
2022/01/22 07:25:35;;;;;;;10.63;6.60;;;;;;;;;;7350773;19;20143;-33
2022/01/22 07:28:17;;;;;;;9.57;6.43;;;;;;;;;;7357852;19;20131;-33
2022/01/22 07:30:48;;;;;;;12.45;7.25;;;;;;;;;;7360945;19;20161;-33
2022/01/22 07:33:20;;;;;;;9.38;6.78;;;;;;;;;;7353332;19;20139;-33
2022/01/22 07:35:53;;;;;;;8.57;6.00;;;;;;;;;;7357494;19;20131;-33
2022/01/22 07:38:27;;;;;;;9.68;5.93;;;;;;;;;;7351348;19;20139;-33
2022/01/22 07:40:57;;;;;;;10.23;6.30;;;;;;;;;;7364475;19;20139;-33
2022/01/22 07:43:31;;;;;;;9.48;5.30;;;;;;;;;;7358027;19;20544;-33
2022/01/22 07:46:20;;;;;;;10.65;6.18;;;;;;;;;;7362312;19;20147;-33
2022/01/22 07:49:00;;;;;;;12.60;6.45;;;;;;;;;;7359635;19;20140;-33
2022/01/22 07:51:35;;;;;;;15.45;8.32;;;;;;;;;;7359915;19;20243;-33
2022/01/22 07:54:12;;;;;;;10.80;6.25;;;;;;;;;;7363177;19;20138;-33
2022/01/22 07:56:42;;;;;;;10.05;6.40;;;;;;;;;;7364476;19;20151;-33
2022/01/22 07:59:13;;;;;;;11.32;7.10;;;;;;;;;;7367453;19;20128;-33
2022/01/22 08:01:50;;;;;;;8.70;6.18;;;;;;;;;;7348140;19;20618;-33
2022/01/22 08:04:25;;;;;;;8.52;7.25;;;;;;;;;;7359944;19;20140;-34
2022/01/22 08:07:27;;;;;;;9.52;6.40;;;;;;;;;;7363698;19;20666;-33
2022/01/22 08:10:19;;;;;;;9.25;6.53;;;;;;;;;;7370649;19;20135;-40
2022/01/22 08:12:53;;;;;;;10.57;6.32;;;;;;;;;;7367993;19;20127;-39
2022/01/22 08:15:23;;;;;;;11.32;7.15;;;;;;;;;;7359824;19;20143;-40
2022/01/22 08:17:53;;;;;;;12.48;6.90;;;;;;;;;;7368363;19;20123;-40
2022/01/22 08:20:24;;;;;;;12.23;8.15;;;;;;;;;;7359092;19;20374;-40
2022/01/22 08:22:54;;;;;;;11.55;8.90;;;;;;;;;;7370629;19;20175;-40
2022/01/22 08:25:48;;;;;;;10.65;6.65;;;;;;;;;;7363154;19;20612;-39
2022/01/22 08:31:24;;;;;;;10.30;6.60;;;;;;;;;;7366132;19;20135;-40
2022/01/22 08:36:43;;;;;;;13.57;7.68;;;;;;;;;;7366530;19;20513;-39
2022/01/22 08:39:13;;;;;;;12.80;7.28;;;;;;;;;;7370380;19;20525;-40
2022/01/22 08:41:45;;;;;;;10.98;7.30;;;;;;;;;;7367265;19;20603;-40
2022/01/22 08:44:15;;;;;;;8.65;6.63;;;;;;;;;;7367254;19;20640;-40
2022/01/22 08:46:45;;;;;;;16.35;8.00;;;;;;;;;;7366714;19;20139;-40
2022/01/22 08:49:17;;;;;;;11.45;7.13;;;;;;;;;;7366856;19;20758;-40
2022/01/22 08:51:56;;;;;;;12.10;7.50;;;;;;;;;;7366077;19;20541;-40
2022/01/22 08:54:30;;;;;;;11.63;7.15;;;;;;;;;;7365129;19;20704;-40
2022/01/22 08:57:05;;;;;;;15.02;7.20;;;;;;;;;;7365171;19;20135;-38
2022/01/22 08:59:36;;;;;;;12.52;8.10;;;;;;;;;;7372988;19;20136;-40
2022/01/22 09:02:09;;;;;;;12.10;8.07;;;;;;;;;;7367870;19;20186;-40
2022/01/22 09:05:02;;;;;;;13.50;7.82;;;;;;;;;;7367585;19;20159;-39
2022/01/22 09:07:48;;;;;;;12.80;7.63;;;;;;;;;;7373965;19;20539;-40
2022/01/22 09:10:32;;;;;;;11.57;7.35;;;;;;;;;;7366744;19;20135;-39
2022/01/22 09:13:13;;;;;;;14.25;7.55;;;;;;;;;;7353775;19;20177;-40
2022/01/22 09:15:58;;;;;;;14.70;7.97;;;;;;;;;;7357095;19;20127;-39
2022/01/22 09:18:28;;;;;;;12.45;7.75;;;;;;;;;;7344920;19;20820;-40
2022/01/22 09:21:08;;;;;;;12.98;8.50;;;;;;;;;;7372405;19;20136;-40
2022/01/22 09:23:41;;;;;;;15.20;7.88;;;;;;;;;;7371281;19;20508;-39
2022/01/22 09:26:14;;;;;;;14.90;7.90;;;;;;;;;;7370294;19;20135;-40
2022/01/22 09:28:47;;;;;;;12.55;7.75;;;;;;;;;;7372008;19;20510;-40
2022/01/22 09:31:18;;;;;;;10.57;7.78;;;;;;;;;;7370497;19;20135;-40
2022/01/22 09:33:50;;;;;;;15.02;7.85;;;;;;;;;;7367874;19;20474;-40
2022/01/22 09:36:41;;;;;;;13.48;7.00;;;;;;;;;;7370819;19;20135;-39
2022/01/22 09:39:31;;;;;;;10.55;6.75;;;;;;;;;;7371098;19;20174;-40
2022/01/22 09:42:27;;;;;;;11.98;7.75;;;;;;;;;;7374286;19;20591;-39
2022/01/22 09:45:12;;;;;;;13.18;7.22;;;;;;;;;;7372586;19;20132;-40
2022/01/22 09:48:07;;;;;;;12.82;7.80;;;;;;;;;;7374580;19;20158;-39
2022/01/22 09:51:03;;;;;;;12.85;7.25;;;;;;;;;;7376902;19;20131;-39
2022/01/22 09:53:38;;;;;;;11.20;8.18;;;;;;;;;;7374617;19;20224;-39
2022/01/22 09:56:34;;;;;;;12.30;7.35;;;;;;;;;;7372338;19;20143;-40
2022/01/22 09:59:18;;;;;;;14.05;7.32;;;;;;;;;;7371623;19;20161;-40
2022/01/22 10:02:15;;;;;;;13.88;8.55;;;;;;;;;;7366116;19;20170;-40
2022/01/22 10:04:48;;;;;;;14.43;7.65;;;;;;;;;;7370425;19;20227;-40
2022/01/22 10:07:37;;;;;;;11.18;6.72;;;;;;;;;;7373544;19;20461;-40
2022/01/22 10:10:25;;;;;;;13.60;8.05;;;;;;;;;;7374127;19;20128;-40
2022/01/22 10:13:40;;;;;;;11.75;7.20;;;;;;;;;;7368604;19;20166;-40
2022/01/22 10:16:26;;;;;;;11.35;6.60;;;;;;;;;;7372621;19;20573;-40
2022/01/22 10:19:11;;;;;;;9.93;6.57;;;;;;;;;;7374161;19;20126;-40
2022/01/22 10:21:44;;;;;;;8.63;6.72;;;;;;;;;;7375708;19;20649;-40
2022/01/22 10:24:34;;;;;;;9.32;6.80;;;;;;;;;;7369567;19;20138;-40
2022/01/22 10:27:23;;;;;;;9.80;7.38;;;;;;;;;;7375363;19;20644;-40
2022/01/22 10:29:54;;;;;;;8.63;6.80;;;;;;;;;;7373685;19;20135;-39
2022/01/22 10:32:36;;;;;;;14.57;6.50;;;;;;;;;;7370721;19;20139;-39
2022/01/22 10:35:26;;;;;;;10.68;6.55;;;;;;;;;;7372739;19;20135;-39
2022/01/22 10:38:18;;;;;;;8.73;6.10;;;;;;;;;;7374014;19;20199;-41
2022/01/22 10:40:48;;;;;;;9.65;6.78;;;;;;;;;;7374866;19;20138;-39
2022/01/22 10:43:21;;;;;;;9.20;7.05;;;;;;;;;;7371475;19;20138;-40
2022/01/22 10:46:06;;;;;;;9.77;5.30;;;;;;;;;;7372714;19;20156;-40
2022/01/22 10:48:38;;;;;;;9.15;5.88;;;;;;;;;;7376031;19;20474;-39
2022/01/22 10:51:09;;;;;;;12.18;6.57;;;;;;;;;;7376620;19;20132;-40
2022/01/22 10:53:46;;;;;;;10.00;5.35;;;;;;;;;;7374162;19;20162;-40
2022/01/22 10:56:17;;;;;;;8.68;5.97;;;;;;;;;;7373290;19;20127;-40
2022/01/22 10:58:54;;;;;;;7.97;5.85;;;;;;;;;;7375394;19;20131;-40
2022/01/22 11:01:24;;;;;;;7.93;5.93;;;;;;;;;;7364063;19;20159;-40
2022/01/22 11:04:10;;;;;;;7.03;5.68;;;;;;;;;;7375496;19;20132;-40
2022/01/22 11:06:49;;;;;;;8.85;6.32;;;;;;;;;;7373594;19;20127;-40
2022/01/22 11:09:26;;;;;;;9.85;6.45;;;;;;;;;;7373939;19;20602;-40
2022/01/22 11:11:56;;;;;;;8.15;5.88;;;;;;;;;;7374430;19;20194;-40
2022/01/22 11:14:26;;;;;;;10.13;6.00;;;;;;;;;;7371763;19;20131;-40
2022/01/22 11:16:58;;;;;;;7.95;4.80;;;;;;;;;;7373189;19;20139;-40
2022/01/22 11:19:32;;;;;;;8.27;5.32;;;;;;;;;;7372246;19;20139;-40
2022/01/22 11:22:05;;;;;;;7.35;5.88;;;;;;;;;;7369677;19;20655;-40
2022/01/22 11:24:39;;;;;;;10.10;6.32;;;;;;;;;;7370272;19;20404;-39
2022/01/22 11:27:10;;;;;;;10.57;6.65;;;;;;;;;;7372590;19;20607;-40
2022/01/22 11:29:43;;;;;;;8.77;6.00;;;;;;;;;;7373210;19;20123;-40
2022/01/22 11:32:13;;;;;;;9.38;7.38;;;;;;;;;;7374665;19;20128;-40
2022/01/22 11:34:44;;;;;;;12.70;5.68;;;;;;;;;;7371604;19;20627;-40
2022/01/22 11:37:16;;;;;;;9.38;6.13;;;;;;;;;;7375079;19;21103;-40
2022/01/22 11:39:51;;;;;;;11.57;6.10;;;;;;;;;;7373542;19;20137;-40
2022/01/22 11:42:22;;;;;;;9.65;6.88;;;;;;;;;;7372861;19;20128;-39
2022/01/22 11:45:02;;;;;;;9.55;7.20;;;;;;;;;;7374333;19;20143;-40
2022/01/22 11:47:32;;;;;;;11.98;6.05;;;;;;;;;;7378028;19;20139;-40
2022/01/22 11:50:07;;;;;;;8.43;5.78;;;;;;;;;;7371374;19;20143;-40
2022/01/22 11:52:38;;;;;;;10.02;5.53;;;;;;;;;;7381139;19;20605;-40
2022/01/22 11:55:13;;;;;;;7.95;6.57;;;;;;;;;;7376812;19;20131;-40
2022/01/22 11:57:44;;;;;;;7.63;5.53;;;;;;;;;;7380411;19;20131;-39
2022/01/22 12:00:26;;;;;;;7.72;5.90;;;;;;;;;;7373221;19;20146;-40
2022/01/22 12:03:11;;;;;;;14.63;6.70;;;;;;;;;;7356561;19;20155;-41
2022/01/22 12:06:08;;;;;;;7.75;5.63;;;;;;;;;;7376414;19;20124;-40
2022/01/22 12:08:53;;;;;;;10.60;6.15;;;;;;;;;;7376654;19;20139;-39
2022/01/22 12:14:34;;;;;;;11.45;5.80;;;;;;;;;;7328186;19;20142;-41
2022/01/22 12:17:13;;;;;;;8.00;6.25;;;;;;;;;;7361794;19;20613;-40
2022/01/22 12:20:03;;;;;;;13.48;7.88;;;;;;;;;;7356371;19;20953;-41
2022/01/22 12:22:33;;;;;;;7.55;5.90;;;;;;;;;;7364036;19;20664;-41
2022/01/22 12:25:25;;;;;;;6.85;5.60;;;;;;;;;;7341897;19;20826;-42
2022/01/22 12:27:55;;;;;;;6.97;5.60;;;;;;;;;;7365155;19;20356;-40
2022/01/22 12:30:36;;;;;;;8.43;4.70;;;;;;;;;;7352844;19;20131;-41
2022/01/22 12:33:13;;;;;;;8.05;6.35;;;;;;;;;;7355155;19;20165;-41
2022/01/22 12:35:44;;;;;;;6.75;5.60;;;;;;;;;;7367519;19;20138;-40
2022/01/22 12:38:19;;;;;;;38.72;27.88;;;;;;;;;;7354637;19;20146;-41
2022/01/22 12:40:52;;;;;;;37.60;20.42;;;;;;;;;;7366919;19;20120;-41
2022/01/22 12:43:28;;;;;;;6.90;5.25;;;;;;;;;;7351273;19;20469;-41
2022/01/22 12:46:01;;;;;;;6.82;4.53;;;;;;;;;;7349479;19;20623;-41
2022/01/22 12:48:38;;;;;;;6.13;3.95;;;;;;;;;;7368316;19;20153;-41
2022/01/22 12:51:09;;;;;;;8.32;4.78;;;;;;;;;;7361289;19;20131;-41
2022/01/22 12:53:41;;;;;;;5.75;4.05;;;;;;;;;;7361162;19;20670;-41
2022/01/22 12:56:48;;;;;;;6.25;4.10;;;;;;;;;;7366420;19;20475;-41
2022/01/22 12:59:16;;;;;;;5.25;4.10;;;;;;;;;;7345736;19;20138;-41
2022/01/22 13:01:51;;;;;;;5.55;3.95;;;;;;;;;;7358682;19;20171;-41
2022/01/22 13:04:26;;;;;;;6.40;4.05;;;;;;;;;;7347652;19;20490;-41
2022/01/22 13:07:14;;;;;;;5.78;4.00;;;;;;;;;;7358757;19;20151;-41
2022/01/22 13:10:07;;;;;;;5.38;4.30;;;;;;;;;;7366007;19;20583;-41
2022/01/22 13:12:46;;;;;;;6.65;4.43;;;;;;;;;;7361935;19;20135;-41
2022/01/22 13:15:18;;;;;;;6.68;4.43;;;;;;;;;;7359149;19;20154;-41
2022/01/22 13:17:52;;;;;;;4.30;3.72;;;;;;;;;;7323027;19;20664;-41
2022/01/22 13:20:28;;;;;;;11.10;5.45;;;;;;;;;;7364718;19;20127;-41
2022/01/22 13:23:02;;;;;;;6.65;4.50;;;;;;;;;;7353721;19;20784;-41
2022/01/22 13:25:31;;;;;;;5.68;4.63;;;;;;;;;;7349656;19;20657;-41
2022/01/22 13:28:02;;;;;;;6.95;5.05;;;;;;;;;;7339610;19;20135;-41
2022/01/22 13:30:39;;;;;;;8.27;5.15;;;;;;;;;;7357793;19;20256;-41
2022/01/22 13:33:16;;;;;;;9.40;5.03;;;;;;;;;;7355566;19;20126;-41
2022/01/22 13:36:00;;;;;;;6.20;5.10;;;;;;;;;;7368287;19;20130;-41
2022/01/22 13:38:53;;;;;;;5.85;4.60;;;;;;;;;;7346346;19;20822;-40
2022/01/22 13:49:42;;;;;;;40.17;20.05;;;;;;;;;;7349849;19;20222;-40
2022/01/22 13:52:16;;;;;;;14.23;7.82;;;;;;;;;;7352258;19;20724;-41
2022/01/22 13:54:46;;;;;;;12.77;6.72;;;;;;;;;;7359290;19;20127;-41
2022/01/22 13:57:16;;;;;;;10.13;6.00;;;;;;;;;;7347842;19;20124;-40
2022/01/22 13:59:52;;;;;;;9.13;6.22;;;;;;;;;;7364008;19;20601;-41
2022/01/22 14:02:37;;;;;;;7.22;5.43;;;;;;;;;;7343522;19;20628;-41
2022/01/22 14:05:08;;;;;;;9.57;5.82;;;;;;;;;;7348635;19;21072;-41
2022/01/22 14:07:42;;;;;;;14.55;6.90;;;;;;;;;;7341988;19;20134;-41
2022/01/22 14:10:12;;;;;;;9.10;6.32;;;;;;;;;;7355357;19;20207;-41
2022/01/22 14:12:54;;;;;;;8.48;6.05;;;;;;;;;;7347535;19;20143;-41
2022/01/22 14:15:31;;;;;;;8.57;6.93;;;;;;;;;;7364419;19;20589;-40
2022/01/22 14:18:22;;;;;;;11.13;6.80;;;;;;;;;;7359355;19;20135;-41
2022/01/22 14:20:55;;;;;;;12.88;7.10;;;;;;;;;;7353081;19;20131;-40
2022/01/22 14:23:35;;;;;;;9.50;6.55;;;;;;;;;;7345817;19;20497;-40
2022/01/22 14:26:08;;;;;;;7.03;5.63;;;;;;;;;;7340241;19;20669;-40
2022/01/22 14:28:43;;;;;;;7.60;5.85;;;;;;;;;;7359817;19;20616;-41
2022/01/22 14:31:23;;;;;;;7.95;5.32;;;;;;;;;;7343395;19;20139;-40
2022/01/22 14:33:55;;;;;;;10.93;5.93;;;;;;;;;;7351336;19;20671;-40
2022/01/22 14:36:26;;;;;;;8.40;6.70;;;;;;;;;;7329105;19;20610;-40
2022/01/22 14:39:12;;;;;;;11.95;7.28;;;;;;;;;;7335055;19;20612;-41
2022/01/22 14:44:37;;;;;;;9.23;6.10;;;;;;;;;;7343565;19;20800;-41
2022/01/22 14:47:13;;;;;;;9.82;6.93;;;;;;;;;;7339528;19;20131;-41
2022/01/22 14:49:44;;;;;;;8.98;6.45;;;;;;;;;;7357888;19;21047;-41
2022/01/22 14:52:15;;;;;;;8.02;6.25;;;;;;;;;;7344480;19;20871;-40
2022/01/22 14:54:50;;;;;;;9.75;6.93;;;;;;;;;;7358432;19;20128;-41
2022/01/22 14:57:23;;;;;;;10.25;6.80;;;;;;;;;;7346965;19;21453;-41
2022/01/22 14:59:53;;;;;;;10.75;6.18;;;;;;;;;;7348346;19;20155;-34
2022/01/22 15:02:25;;;;;;;10.63;7.35;;;;;;;;;;7333473;19;20187;-34
2022/01/22 15:04:57;;;;;;;8.25;6.65;;;;;;;;;;7333493;19;20187;-34
2022/01/22 15:07:27;;;;;;;9.45;6.68;;;;;;;;;;7346613;19;20700;-34
2022/01/22 15:10:01;;;;;;;12.60;6.63;;;;;;;;;;7346456;19;20606;-34
2022/01/22 15:12:31;;;;;;;10.10;7.00;;;;;;;;;;7346853;19;20151;-33
2022/01/22 15:15:06;;;;;;;13.88;6.75;;;;;;;;;;7349223;19;20800;-34
2022/01/22 15:17:53;;;;;;;11.88;6.25;;;;;;;;;;7339736;19;20183;-34
2022/01/22 15:20:29;;;;;;;8.25;6.75;;;;;;;;;;7348765;19;20123;-34
2022/01/22 15:22:59;;;;;;;10.30;6.70;;;;;;;;;;7350681;19;20139;-34
2022/01/22 15:25:33;;;;;;;13.02;6.90;;;;;;;;;;7333550;19;20135;-34
2022/01/22 15:28:03;;;;;;;9.48;6.20;;;;;;;;;;7341532;19;20131;-34
2022/01/22 15:30:36;;;;;;;11.38;7.38;;;;;;;;;;7354328;19;20128;-34
2022/01/22 15:33:18;;;;;;;11.57;7.35;;;;;;;;;;7358877;19;20132;-34
2022/01/22 15:35:48;;;;;;;11.13;7.47;;;;;;;;;;7341320;19;22747;-34
2022/01/22 15:38:22;;;;;;;12.55;8.05;;;;;;;;;;7331641;19;20455;-34
2022/01/22 15:40:55;;;;;;;15.60;8.63;;;;;;;;;;7341941;19;20943;-34
2022/01/22 15:43:27;;;;;;;14.43;8.13;;;;;;;;;;7358869;19;21577;-35
2022/01/22 15:45:58;;;;;;;12.82;7.90;;;;;;;;;;7350100;19;20678;-34
2022/01/22 15:48:30;;;;;;;11.50;7.20;;;;;;;;;;7355876;19;20124;-34
2022/01/22 15:51:03;;;;;;;10.15;7.30;;;;;;;;;;7350495;19;20131;-34
2022/01/22 15:53:33;;;;;;;15.55;9.50;;;;;;;;;;7341001;19;20363;-34
2022/01/22 15:56:05;;;;;;;11.63;7.97;;;;;;;;;;7351239;19;20878;-34
2022/01/22 15:58:37;;;;;;;15.40;8.23;;;;;;;;;;7350922;19;20127;-34
2022/01/22 16:01:09;;;;;;;10.27;7.60;;;;;;;;;;7350110;19;20704;-34
2022/01/22 16:03:42;;;;;;;9.52;6.63;;;;;;;;;;7348502;19;20132;-34
2022/01/22 16:06:22;;;;;;;15.73;7.50;;;;;;;;;;7353289;19;20483;-34
2022/01/22 16:08:52;;;;;;;8.23;7.03;;;;;;;;;;7346066;19;20375;-34
2022/01/22 16:11:26;;;;;;;10.65;7.55;;;;;;;;;;7364639;19;20131;-40
2022/01/22 16:13:58;;;;;;;13.85;7.60;;;;;;;;;;7344328;19;20178;-41
2022/01/22 16:16:28;;;;;;;12.07;7.70;;;;;;;;;;7363500;19;20131;-40
2022/01/22 16:18:58;;;;;;;11.35;7.65;;;;;;;;;;7372354;19;20128;-40
2022/01/22 16:21:30;;;;;;;11.57;8.20;;;;;;;;;;7364078;19;20185;-40
2022/01/22 16:24:00;;;;;;;13.20;7.90;;;;;;;;;;7357970;19;20262;-40
2022/01/22 16:26:35;;;;;;;12.63;7.90;;;;;;;;;;7360411;19;20139;-40
2022/01/22 16:29:07;;;;;;;13.85;8.25;;;;;;;;;;7365994;19;20135;-40
2022/01/22 16:31:37;;;;;;;13.88;7.85;;;;;;;;;;7369031;19;20135;-40
2022/01/22 16:34:08;;;;;;;13.00;7.20;;;;;;;;;;7361167;19;20138;-40
2022/01/22 16:36:40;;;;;;;10.23;6.93;;;;;;;;;;7364863;19;20140;-40
2022/01/22 16:39:12;;;;;;;13.35;8.00;;;;;;;;;;7372364;19;20128;-40
2022/01/22 16:41:52;;;;;;;14.30;9.23;;;;;;;;;;7369166;19;20176;-40
2022/01/22 16:44:26;;;;;;;9.95;7.25;;;;;;;;;;7367553;19;20152;-40
2022/01/22 16:55:14;;;;;;;15.27;8.73;;;;;;;;;;7358014;19;20159;-40
2022/01/22 16:57:56;;;;;;;12.70;8.57;;;;;;;;;;7363926;19;20138;-39